Time;durP1;ratioP1;P1;durP2;ratioP2;P2;SDS_P1;SDS_P2;PMS_P1;PMS_P2;Temp;Humidity;BMP_temperature;BMP_pressure;BME280_temperature;BME280_humidity;BME280_pressure;Samples;Min_cycle;Max_cycle;Signal;HPM_P1;HPM_P2
2023/11/08 00:01:53;;;;;;;12.32;6.40;;;;;;;12.04;57.37;95060.94;5015104;28;20026;-74
2023/11/08 00:04:19;;;;;;;11.05;6.00;;;;;;;12.03;57.41;95051.91;5007783;28;20030;-75
2023/11/08 00:06:45;;;;;;;12.15;5.78;;;;;;;12.04;57.89;95061.72;5021289;28;20859;-75
2023/11/08 00:09:10;;;;;;;15.90;7.57;;;;;;;11.98;57.86;95040.69;5020704;28;20065;-74
2023/11/08 00:11:38;;;;;;;14.90;6.30;;;;;;;12.02;57.95;95052.38;5039039;28;20077;-75
2023/11/08 00:14:05;;;;;;;9.73;5.90;;;;;;;12.05;58.11;95044.00;5009930;28;20025;-75
2023/11/08 00:16:31;;;;;;;14.30;5.68;;;;;;;12.05;57.85;95043.22;5037291;28;20030;-75
2023/11/08 00:18:56;;;;;;;9.85;4.35;;;;;;;12.11;57.60;95033.94;5040599;28;20054;-75
2023/11/08 00:21:24;;;;;;;10.90;6.00;;;;;;;12.11;57.88;95035.94;5008379;28;20080;-75
2023/11/08 00:23:49;;;;;;;12.00;5.70;;;;;;;12.12;57.97;95029.97;5009039;28;20494;-75
2023/11/08 00:26:15;;;;;;;11.77;5.65;;;;;;;12.14;57.87;95018.50;5036482;28;20026;-75
2023/11/08 00:28:40;;;;;;;13.90;6.25;;;;;;;12.14;58.17;95024.78;5036696;28;20034;-75
2023/11/08 00:31:07;;;;;;;16.02;6.43;;;;;;;12.12;58.23;95013.44;5006661;28;20049;-75
2023/11/08 00:33:32;;;;;;;13.15;6.93;;;;;;;12.17;58.13;95009.34;5019269;28;20037;-74
2023/11/08 00:35:58;;;;;;;11.27;6.45;;;;;;;12.17;58.02;95007.38;5041181;28;20404;-75
2023/11/08 00:38:23;;;;;;;11.07;5.82;;;;;;;12.14;58.19;95018.50;5025142;28;20022;-75
2023/11/08 00:40:48;;;;;;;12.43;6.28;;;;;;;12.19;57.90;94999.41;5022536;28;20421;-75
2023/11/08 00:43:14;;;;;;;13.82;6.90;;;;;;;12.26;57.94;95003.91;5019745;28;20485;-75
2023/11/08 00:45:39;;;;;;;12.88;7.05;;;;;;;12.18;58.12;95003.38;5037250;28;20079;-75
2023/11/08 00:48:05;;;;;;;11.80;6.28;;;;;;;12.15;58.37;95003.50;5021504;28;20408;-76
2023/11/08 00:50:31;;;;;;;10.85;6.70;;;;;;;12.20;58.18;95000.94;5005434;28;20119;-74
2023/11/08 00:52:58;;;;;;;13.25;6.28;;;;;;;12.20;58.27;95003.72;5025996;28;20077;-74
2023/11/08 00:55:26;;;;;;;13.57;6.40;;;;;;;12.17;58.33;94990.06;5040503;28;20037;-75
2023/11/08 00:57:52;;;;;;;13.32;6.53;;;;;;;12.19;58.08;94988.38;5025828;28;20072;-75
2023/11/08 01:00:18;;;;;;;15.13;7.63;;;;;;;12.19;58.36;94982.13;5017579;28;20465;-75
2023/11/08 01:02:47;;;;;;;14.90;7.05;;;;;;;12.19;58.41;94984.88;5036985;28;20556;-74
2023/11/08 01:05:13;;;;;;;16.50;7.25;;;;;;;12.16;58.57;94983.78;5017003;28;20037;-74
2023/11/08 01:07:38;;;;;;;16.30;7.72;;;;;;;12.15;58.42;94979.47;5027732;28;20061;-75
2023/11/08 01:10:05;;;;;;;13.90;7.00;;;;;;;12.22;58.06;94990.28;5004892;28;20444;-75
2023/11/08 01:12:30;;;;;;;13.25;7.25;;;;;;;12.13;58.19;94970.88;5005441;28;20022;-75
2023/11/08 01:14:56;;;;;;;12.77;6.78;;;;;;;12.12;58.36;94969.34;5006772;28;20026;-74
2023/11/08 01:17:21;;;;;;;14.27;6.93;;;;;;;12.09;57.69;94967.47;5020848;28;20034;-75
2023/11/08 01:19:47;;;;;;;13.05;6.70;;;;;;;11.98;58.00;94975.31;5005673;28;20057;-75
2023/11/08 01:22:12;;;;;;;18.70;7.78;;;;;;;11.91;58.61;94964.56;5017398;28;20168;-75
2023/11/08 01:24:41;;;;;;;10.65;5.75;;;;;;;11.95;57.81;94970.72;5014060;28;20026;-75
2023/11/08 01:27:07;;;;;;;14.90;6.78;;;;;;;11.94;58.56;94966.44;5025555;28;20045;-74
2023/11/08 01:29:32;;;;;;;13.70;6.22;;;;;;;11.93;58.50;94968.41;5024845;28;20104;-74
2023/11/08 01:31:58;;;;;;;13.43;6.15;;;;;;;11.94;58.32;94961.69;5021073;28;20030;-74
2023/11/08 01:34:24;;;;;;;15.75;6.40;;;;;;;12.03;58.34;94949.19;5003876;28;20109;-74
2023/11/08 01:36:49;;;;;;;13.27;6.85;;;;;;;12.00;58.62;94964.66;5005679;28;20034;-74
2023/11/08 01:39:14;;;;;;;13.70;5.97;;;;;;;12.03;58.70;94954.72;5040341;28;20096;-74
2023/11/08 01:41:48;;;;;;;15.35;6.25;;;;;;;12.02;58.98;94947.66;5025028;28;20460;-75
2023/11/08 01:44:19;;;;;;;14.90;6.60;;;;;;;12.01;58.91;94943.38;5025711;28;20017;-74
2023/11/08 01:46:47;;;;;;;13.73;5.90;;;;;;;12.01;58.79;94937.88;5023306;28;20036;-74
2023/11/08 01:49:12;;;;;;;15.40;5.80;;;;;;;12.00;58.66;94930.81;5007958;28;20080;-74
2023/11/08 01:51:39;;;;;;;10.60;5.13;;;;;;;12.00;58.63;94930.81;5036889;28;20033;-74
2023/11/08 01:54:04;;;;;;;15.68;6.18;;;;;;;12.00;58.71;94936.34;5038666;28;20036;-74
2023/11/08 01:56:30;;;;;;;11.45;5.80;;;;;;;12.00;58.83;94917.81;5016564;28;20026;-74
2023/11/08 01:58:56;;;;;;;17.73;5.95;;;;;;;11.98;59.11;94916.72;5038036;28;20105;-74
2023/11/08 02:01:22;;;;;;;8.82;5.75;;;;;;;12.02;58.95;94912.63;5010312;28;20103;-74
2023/11/08 02:03:48;;;;;;;11.80;5.57;;;;;;;12.06;58.86;94923.53;5024926;28;20033;-74
2023/11/08 02:06:15;;;;;;;14.18;5.90;;;;;;;12.07;58.88;94903.03;5023331;28;20029;-74
2023/11/08 02:08:41;;;;;;;8.88;4.82;;;;;;;12.06;59.07;94901.47;5027800;28;20033;-74
2023/11/08 02:11:08;;;;;;;11.38;5.35;;;;;;;12.05;59.01;94884.19;5028631;28;20079;-74
2023/11/08 02:13:33;;;;;;;8.75;5.18;;;;;;;12.04;59.08;94901.16;5043701;28;20033;-75
2023/11/08 02:15:59;;;;;;;12.05;5.60;;;;;;;12.06;59.03;94893.22;5043747;28;20040;-74
2023/11/08 02:18:25;;;;;;;12.65;5.93;;;;;;;12.07;59.08;94889.25;5028396;28;20053;-75
2023/11/08 02:20:51;;;;;;;11.05;5.53;;;;;;;12.21;58.97;94897.00;5009261;28;20084;-75
2023/11/08 02:23:17;;;;;;;11.60;5.60;;;;;;;12.18;58.95;94892.38;5040530;28;20049;-75
2023/11/08 02:25:43;;;;;;;11.30;5.00;;;;;;;12.15;59.08;94909.81;5042704;28;20104;-75
2023/11/08 02:28:09;;;;;;;13.05;5.65;;;;;;;12.10;58.73;94886.38;5023551;28;20430;-75
2023/11/08 02:30:34;;;;;;;14.25;6.15;;;;;;;12.16;58.78;94903.88;5009433;28;20117;-74
2023/11/08 02:33:00;;;;;;;10.90;5.13;;;;;;;12.25;58.73;94907.91;5016093;28;20107;-74
2023/11/08 02:35:25;;;;;;;13.80;6.13;;;;;;;12.18;59.04;94915.19;5008184;28;20030;-75
2023/11/08 02:37:51;;;;;;;11.43;6.72;;;;;;;12.12;58.88;94897.69;5042797;28;20025;-75
2023/11/08 02:40:17;;;;;;;11.38;5.80;;;;;;;12.09;58.83;94915.13;5024783;28;20029;-75
2023/11/08 02:42:44;;;;;;;13.93;6.03;;;;;;;12.08;58.57;94919.09;5007596;28;20033;-74
2023/11/08 02:45:10;;;;;;;9.23;5.20;;;;;;;12.08;58.66;94930.13;5040546;28;20018;-75
2023/11/08 02:47:39;;;;;;;17.80;6.05;;;;;;;12.06;58.50;94902.25;5007227;28;20496;-75
2023/11/08 02:50:06;;;;;;;10.23;5.80;;;;;;;12.12;58.72;94922.50;5006981;28;20199;-75
2023/11/08 02:52:32;;;;;;;11.85;6.75;;;;;;;12.00;58.95;94931.59;5007497;28;20066;-75
2023/11/08 02:54:58;;;;;;;11.75;5.57;;;;;;;12.00;58.95;94933.56;5007835;28;20030;-75
2023/11/08 02:57:23;;;;;;;11.30;6.35;;;;;;;11.94;59.08;94911.34;5006650;28;20133;-75
2023/11/08 02:59:49;;;;;;;12.45;5.82;;;;;;;11.94;59.23;94911.34;5007212;28;20029;-74
2023/11/08 03:02:15;;;;;;;15.95;6.78;;;;;;;11.90;58.91;94905.94;5043359;28;20033;-75
2023/11/08 03:04:41;;;;;;;12.00;6.05;;;;;;;11.96;58.87;94937.22;5026620;28;20078;-75
2023/11/08 03:07:06;;;;;;;10.32;6.63;;;;;;;11.84;59.48;94924.25;5027653;28;20038;-74
2023/11/08 03:09:32;;;;;;;11.13;6.60;;;;;;;11.84;59.56;94920.72;5007198;28;20099;-74
2023/11/08 03:11:58;;;;;;;14.02;6.32;;;;;;;11.84;59.90;94895.94;5018817;28;20029;-75
2023/11/08 03:14:27;;;;;;;13.27;6.28;;;;;;;11.80;60.12;94890.50;5042453;28;20022;-74
2023/11/08 03:16:53;;;;;;;12.15;6.32;;;;;;;11.79;60.18;94882.72;5026878;28;20034;-74
2023/11/08 03:19:21;;;;;;;14.68;6.45;;;;;;;11.81;60.16;94911.34;5042863;28;20037;-74
2023/11/08 03:21:47;;;;;;;13.27;7.05;;;;;;;11.81;60.32;94894.84;5017348;28;20030;-74
2023/11/08 03:24:13;;;;;;;12.57;6.65;;;;;;;11.87;59.89;94908.81;5008019;28;20432;-74
2023/11/08 03:26:38;;;;;;;13.35;6.65;;;;;;;11.87;60.41;94917.88;5023034;28;20036;-75
2023/11/08 03:29:04;;;;;;;12.20;6.38;;;;;;;11.84;60.66;94907.72;5027008;28;20043;-74
2023/11/08 03:31:30;;;;;;;13.57;6.80;;;;;;;11.87;60.27;94904.09;5026295;28;20630;-74
2023/11/08 03:33:59;;;;;;;11.13;5.50;;;;;;;11.88;60.00;94891.84;5041739;28;20025;-74
2023/11/08 03:36:25;;;;;;;11.13;6.28;;;;;;;11.86;60.28;94891.50;5038860;28;20021;-74
2023/11/08 03:38:50;;;;;;;14.13;6.28;;;;;;;11.85;60.39;94894.72;5025574;28;20030;-75
2023/11/08 03:41:16;;;;;;;10.65;6.13;;;;;;;11.87;60.53;94919.81;5027538;28;20498;-73
2023/11/08 03:43:41;;;;;;;12.80;6.32;;;;;;;11.83;60.64;94880.63;5026099;28;20517;-74
2023/11/08 03:46:07;;;;;;;9.07;5.05;;;;;;;11.85;60.49;94889.22;5009046;28;20025;-75
2023/11/08 03:48:32;;;;;;;9.13;5.43;;;;;;;11.88;60.28;94882.81;5039707;28;20030;-75
2023/11/08 03:50:58;;;;;;;10.93;4.47;;;;;;;11.89;60.22;94892.63;5025400;28;20061;-75
2023/11/08 03:53:23;;;;;;;9.88;4.60;;;;;;;11.84;60.09;94871.16;5026152;28;20086;-75
2023/11/08 03:55:50;;;;;;;19.38;5.43;;;;;;;11.93;60.14;94890.53;5041258;28;20108;-75
2023/11/08 03:58:16;;;;;;;12.57;4.82;;;;;;;11.95;60.16;94899.88;5025755;28;20025;-75
2023/11/08 04:00:42;;;;;;;10.88;4.75;;;;;;;12.00;60.08;94895.78;5029986;28;20025;-75
2023/11/08 04:03:07;;;;;;;13.57;5.00;;;;;;;11.98;59.97;94900.19;5027051;28;20021;-75
2023/11/08 04:05:33;;;;;;;10.95;4.70;;;;;;;11.96;60.46;94912.41;5040613;28;20064;-75
2023/11/08 04:07:59;;;;;;;11.93;4.30;;;;;;;11.97;60.27;94904.91;5026727;28;20120;-75
2023/11/08 04:10:25;;;;;;;8.90;4.40;;;;;;;11.98;60.37;94900.94;5026306;28;20080;-75
2023/11/08 04:12:50;;;;;;;7.30;4.57;;;;;;;12.01;60.28;94891.81;5024471;28;20107;-74
2023/11/08 04:15:16;;;;;;;8.27;3.95;;;;;;;12.07;60.15;94889.25;5025519;28;20080;-75
2023/11/08 04:17:41;;;;;;;10.93;5.15;;;;;;;12.08;60.33;94877.75;5021990;28;20683;-75
2023/11/08 04:20:10;;;;;;;9.30;4.18;;;;;;;12.11;60.06;94862.34;5022434;28;20046;-75
2023/11/08 04:22:35;;;;;;;10.38;5.03;;;;;;;12.10;59.95;94864.31;5036473;28;20504;-75
2023/11/08 04:25:01;;;;;;;9.35;4.72;;;;;;;12.15;59.59;94866.47;5006893;28;20033;-75
2023/11/08 04:27:26;;;;;;;14.30;4.55;;;;;;;12.17;59.72;94861.31;5004496;28;20041;-75
2023/11/08 04:29:52;;;;;;;9.52;5.00;;;;;;;12.19;59.54;94869.88;5021128;28;20442;-74
2023/11/08 04:32:17;;;;;;;12.63;5.25;;;;;;;12.20;59.60;94874.19;5037505;28;20040;-74
2023/11/08 04:34:42;;;;;;;12.20;5.18;;;;;;;12.13;59.55;94882.72;5006183;28;20022;-73
2023/11/08 04:37:09;;;;;;;12.40;5.40;;;;;;;12.17;59.69;94891.63;5022994;28;20570;-76
2023/11/08 04:39:35;;;;;;;11.35;5.85;;;;;;;12.17;59.74;94901.88;5025273;28;20630;-74
2023/11/08 04:42:00;;;;;;;10.90;4.70;;;;;;;12.21;59.46;94899.75;5026214;28;20056;-74
2023/11/08 04:44:26;;;;;;;13.35;5.65;;;;;;;12.22;59.50;94898.56;5038787;28;20021;-73
2023/11/08 04:46:52;;;;;;;15.65;6.00;;;;;;;12.28;59.35;94880.22;5025886;28;20427;-74
2023/11/08 04:49:17;;;;;;;11.05;5.70;;;;;;;12.21;59.69;94872.19;5017408;28;20025;-74
2023/11/08 04:51:43;;;;;;;10.10;5.22;;;;;;;12.14;59.53;94867.69;5005762;28;20021;-74
2023/11/08 04:54:08;;;;;;;12.10;4.85;;;;;;;12.23;59.45;94883.53;5006374;28;20037;-74
2023/11/08 04:56:34;;;;;;;12.10;5.18;;;;;;;12.25;59.39;94888.59;5037007;28;20484;-74
2023/11/08 04:58:59;;;;;;;10.70;5.00;;;;;;;12.26;59.44;94893.66;5012821;28;20034;-74
2023/11/08 05:01:28;;;;;;;11.35;5.00;;;;;;;12.33;59.52;94907.22;5019036;28;20084;-74
2023/11/08 05:03:53;;;;;;;10.55;4.60;;;;;;;12.34;59.55;94905.97;5022782;28;20072;-74
2023/11/08 05:06:18;;;;;;;9.85;4.32;;;;;;;12.41;59.49;94910.47;5025394;28;20053;-74
2023/11/08 05:08:44;;;;;;;9.65;5.05;;;;;;;12.44;59.46;94917.81;5025413;28;20422;-74
2023/11/08 05:11:10;;;;;;;9.85;5.72;;;;;;;12.38;59.90;94898.34;5007769;28;20049;-74
2023/11/08 05:13:35;;;;;;;14.32;8.32;;;;;;;12.42;59.81;94882.44;5025370;28;20103;-74
2023/11/08 05:16:00;;;;;;;11.25;6.13;;;;;;;12.41;60.22;94894.69;5012631;28;20026;-75
2023/11/08 05:18:26;;;;;;;12.80;7.43;;;;;;;12.45;60.14;94886.31;5009903;28;20030;-74
2023/11/08 05:20:52;;;;;;;12.02;6.10;;;;;;;12.48;59.86;94891.66;5024852;28;20124;-74
2023/11/08 05:23:17;;;;;;;13.73;5.50;;;;;;;12.44;60.11;94891.06;5024798;28;20112;-74
2023/11/08 05:25:42;;;;;;;11.10;5.40;;;;;;;12.48;59.91;94888.91;5025995;28;20068;-74
2023/11/08 05:28:08;;;;;;;11.75;5.97;;;;;;;12.51;59.89;94887.25;5022617;28;20033;-74
2023/11/08 05:30:35;;;;;;;12.73;6.78;;;;;;;12.53;59.88;94887.56;5005693;28;20377;-74
2023/11/08 05:33:01;;;;;;;15.18;6.55;;;;;;;12.54;59.99;94882.81;5010405;28;20109;-73
2023/11/08 05:35:27;;;;;;;18.80;6.80;;;;;;;12.55;60.12;94889.88;5043538;28;20021;-74
2023/11/08 05:37:52;;;;;;;12.27;6.43;;;;;;;12.59;60.29;94901.53;5027490;28;20032;-74
2023/11/08 05:40:18;;;;;;;12.23;6.15;;;;;;;12.62;60.25;94911.69;5013503;28;20030;-77
2023/11/08 05:42:44;;;;;;;13.95;6.72;;;;;;;12.65;59.97;94922.56;5041009;28;20034;-74
2023/11/08 05:45:10;;;;;;;14.27;6.72;;;;;;;12.69;59.86;94927.97;5041145;28;20026;-74
2023/11/08 05:47:36;;;;;;;15.50;7.72;;;;;;;12.74;59.45;94916.34;5026119;28;20032;-74
2023/11/08 05:50:02;;;;;;;13.13;5.88;;;;;;;12.77;59.55;94907.16;5027078;28;20164;-73
2023/11/08 05:52:27;;;;;;;12.15;6.35;;;;;;;12.72;59.58;94922.28;5027043;28;20456;-74
2023/11/08 05:54:52;;;;;;;13.15;6.60;;;;;;;12.82;59.19;94897.53;5010788;28;20068;-74
2023/11/08 05:57:18;;;;;;;10.65;6.25;;;;;;;12.80;59.03;94908.25;5042064;28;20065;-74
2023/11/08 05:59:44;;;;;;;18.00;6.95;;;;;;;12.84;59.12;94917.16;5029647;28;20029;-74
2023/11/08 06:02:09;;;;;;;12.75;6.07;;;;;;;12.67;59.56;94887.03;5024719;28;20381;-75
2023/11/08 06:04:36;;;;;;;8.98;5.80;;;;;;;12.79;59.34;94912.22;5029091;28;20025;-76
2023/11/08 06:07:01;;;;;;;10.50;5.25;;;;;;;12.69;59.52;94897.63;5043493;28;20113;-75
2023/11/08 06:09:27;;;;;;;12.32;5.75;;;;;;;12.69;59.50;94906.66;5040410;28;20652;-76
2023/11/08 06:11:53;;;;;;;10.20;4.60;;;;;;;12.69;59.80;94911.41;5027549;28;20025;-76
2023/11/08 06:14:18;;;;;;;12.73;5.88;;;;;;;12.75;59.81;94921.41;5026401;28;20026;-76
2023/11/08 06:16:44;;;;;;;11.65;5.03;;;;;;;12.79;59.70;94942.56;5027911;28;20401;-75
2023/11/08 06:19:09;;;;;;;13.27;4.43;;;;;;;12.84;59.51;94922.66;5020494;28;20049;-76
2023/11/08 06:21:35;;;;;;;10.63;4.50;;;;;;;12.88;59.13;94907.50;5023439;28;20654;-76
2023/11/08 06:24:01;;;;;;;15.60;5.38;;;;;;;12.97;59.10;94926.88;5017317;28;20116;-76
2023/11/08 06:26:26;;;;;;;13.07;4.45;;;;;;;13.06;58.95;94928.13;5061273;28;20116;-75
2023/11/08 06:28:52;;;;;;;11.40;4.00;;;;;;;13.15;58.79;94937.25;5043895;28;20051;-75
2023/11/08 06:31:22;;;;;;;10.10;4.30;;;;;;;13.19;58.63;94945.38;5028123;28;20049;-75
2023/11/08 06:33:47;;;;;;;9.27;4.07;;;;;;;13.27;58.39;94938.38;5028685;28;20047;-75
2023/11/08 06:36:16;;;;;;;10.43;4.80;;;;;;;13.36;58.67;94955.00;5027358;28;20484;-75
2023/11/08 06:38:42;;;;;;;15.25;5.15;;;;;;;13.46;58.73;94953.03;5023805;28;20034;-75
2023/11/08 06:41:07;;;;;;;14.90;5.45;;;;;;;13.52;58.67;94956.72;5007080;28;20081;-75
2023/11/08 06:43:33;;;;;;;11.20;4.63;;;;;;;13.46;58.31;94939.97;5045314;28;20032;-74
2023/11/08 06:45:59;;;;;;;11.07;4.40;;;;;;;13.45;58.33;94943.97;5046389;28;20030;-74
2023/11/08 06:48:25;;;;;;;11.52;5.70;;;;;;;13.57;58.65;94945.09;5054318;28;20025;-74
2023/11/08 06:50:50;;;;;;;16.17;5.10;;;;;;;13.63;58.57;94950.78;5043297;28;20484;-75
2023/11/08 06:53:17;;;;;;;11.57;5.72;;;;;;;13.67;58.53;94937.59;5042175;28;20021;-75
2023/11/08 06:55:46;;;;;;;16.02;5.53;;;;;;;13.75;58.95;94941.59;5027144;28;20017;-75
2023/11/08 06:58:12;;;;;;;12.15;5.78;;;;;;;13.77;59.11;94955.75;5026726;28;20036;-76
2023/11/08 07:00:38;;;;;;;12.48;5.85;;;;;;;13.78;58.73;94960.03;5011193;28;20110;-76
2023/11/08 07:03:04;;;;;;;12.07;5.90;;;;;;;13.80;58.87;94974.16;5006527;28;20034;-76
2023/11/08 07:05:31;;;;;;;18.02;6.78;;;;;;;13.89;59.06;94973.41;5038821;28;20572;-76
2023/11/08 07:07:57;;;;;;;19.73;7.25;;;;;;;13.85;59.10;94970.78;5038434;28;20037;-76
2023/11/08 07:10:22;;;;;;;17.80;6.38;;;;;;;13.87;59.48;94984.13;5006965;28;20026;-76
2023/11/08 07:12:48;;;;;;;12.98;6.25;;;;;;;13.88;59.83;94969.88;5041623;28;20032;-75
2023/11/08 07:15:13;;;;;;;14.30;6.28;;;;;;;13.85;59.71;94979.06;5008429;28;20107;-75
2023/11/08 07:17:39;;;;;;;14.52;6.75;;;;;;;13.86;60.19;94969.56;5023404;28;20092;-76
2023/11/08 07:20:09;;;;;;;14.77;6.97;;;;;;;13.90;60.37;94988.75;5025913;28;20045;-76
2023/11/08 07:22:35;;;;;;;15.73;6.80;;;;;;;13.93;60.35;94972.00;5037312;28;20080;-75
2023/11/08 07:25:01;;;;;;;11.95;7.15;;;;;;;13.84;60.94;94998.88;5009403;28;20112;-75
2023/11/08 07:27:26;;;;;;;15.38;7.40;;;;;;;13.77;60.84;94964.03;5026822;28;20540;-75
2023/11/08 07:29:53;;;;;;;16.92;7.95;;;;;;;13.80;61.29;94980.44;5028044;28;20519;-75
2023/11/08 07:32:19;;;;;;;17.02;7.50;;;;;;;13.76;61.80;94973.50;5010351;28;20030;-75
2023/11/08 07:34:44;;;;;;;14.60;7.18;;;;;;;13.77;62.03;94986.13;5035016;28;20116;-75
2023/11/08 07:37:09;;;;;;;15.38;6.80;;;;;;;13.85;61.88;95008.69;5035852;28;20021;-75
2023/11/08 07:39:54;;;;;;;13.20;7.90;;;;;;;13.86;62.05;94982.59;5062336;28;20033;-75
2023/11/08 07:42:21;;;;;;;12.68;6.85;;;;;;;13.78;62.49;94977.38;5023013;28;20037;-74
2023/11/08 07:44:47;;;;;;;11.93;5.93;;;;;;;13.81;62.23;94992.25;5006953;28;20032;-80
2023/11/08 07:47:14;;;;;;;12.88;4.72;;;;;;;13.78;61.49;94966.31;5034029;28;20041;-75
2023/11/08 07:49:40;;;;;;;19.75;7.85;;;;;;;13.88;62.84;94980.13;5041220;28;20112;-75
2023/11/08 07:52:05;;;;;;;14.38;6.43;;;;;;;13.89;63.30;94956.84;5059202;28;20068;-75
2023/11/08 07:54:35;;;;;;;13.48;6.40;;;;;;;13.84;64.15;94922.28;5024134;28;20488;-76
2023/11/08 07:57:01;;;;;;;18.25;7.95;;;;;;;13.84;64.81;94933.34;5036071;28;20132;-76
2023/11/08 07:59:27;;;;;;;19.30;8.70;;;;;;;13.83;65.13;94929.03;5036872;28;20497;-76
2023/11/08 08:01:52;;;;;;;30.17;11.95;;;;;;;13.86;64.63;94925.34;5039167;28;20124;-75
2023/11/08 08:04:18;;;;;;;28.70;14.15;;;;;;;13.86;64.57;94925.34;5021780;28;20055;-75
2023/11/08 08:06:43;;;;;;;21.92;12.65;;;;;;;13.87;64.58;94931.63;5044801;28;20025;-75
2023/11/08 08:09:14;;;;;;;26.55;11.98;;;;;;;13.90;64.13;94930.72;5040864;28;20025;-74
2023/11/08 08:11:44;;;;;;;24.83;10.70;;;;;;;14.03;63.66;94917.53;5025037;28;20029;-76
2023/11/08 08:14:09;;;;;;;22.33;11.23;;;;;;;14.07;63.88;94913.41;5009873;28;20473;-75
2023/11/08 08:16:35;;;;;;;16.42;10.93;;;;;;;14.04;64.00;94913.53;5015040;28;20029;-75
2023/11/08 08:19:01;;;;;;;22.55;11.93;;;;;;;14.02;64.31;94919.53;5037636;28;20046;-75
2023/11/08 08:21:26;;;;;;;19.33;11.40;;;;;;;14.03;63.94;94912.00;5038600;28;20488;-75
2023/11/08 08:23:53;;;;;;;21.85;11.63;;;;;;;14.04;64.17;94932.88;5009881;28;20026;-76
2023/11/08 08:26:18;;;;;;;20.48;11.38;;;;;;;14.00;64.75;94922.00;5007842;28;20020;-75
2023/11/08 08:28:43;;;;;;;27.98;13.27;;;;;;;14.03;64.84;94923.81;5036567;28;20030;-75
2023/11/08 08:31:09;;;;;;;21.13;12.05;;;;;;;14.02;64.96;94930.59;5006666;28;20109;-75
2023/11/08 08:33:34;;;;;;;19.98;11.60;;;;;;;14.02;65.23;94944.41;5036871;28;20026;-76
2023/11/08 08:36:00;;;;;;;20.77;11.48;;;;;;;14.06;65.09;94950.56;5038206;28;20052;-75
2023/11/08 08:38:25;;;;;;;22.75;11.85;;;;;;;14.05;64.82;94948.25;5037592;28;20026;-76
2023/11/08 08:40:51;;;;;;;24.27;11.73;;;;;;;14.07;64.16;94946.56;5005740;28;20122;-75
2023/11/08 08:43:18;;;;;;;18.17;10.75;;;;;;;14.13;63.99;94940.44;5006313;28;20117;-75
2023/11/08 08:45:43;;;;;;;24.90;11.77;;;;;;;14.06;63.97;94927.69;5037073;28;20469;-76
2023/11/08 08:48:09;;;;;;;22.13;11.85;;;;;;;14.11;64.03;94940.91;5006782;28;20115;-75
2023/11/08 08:50:36;;;;;;;21.90;10.88;;;;;;;14.06;63.96;94933.22;5004956;28;20101;-76
2023/11/08 08:53:02;;;;;;;17.95;10.80;;;;;;;14.13;63.69;94926.59;5006443;28;20092;-76
2023/11/08 08:55:28;;;;;;;21.85;11.15;;;;;;;14.24;63.60;94935.97;5036910;28;20877;-76
2023/11/08 08:57:53;;;;;;;22.73;12.88;;;;;;;14.29;63.59;94934.59;5006186;28;20105;-75
2023/11/08 09:00:19;;;;;;;23.75;11.60;;;;;;;14.29;64.10;94931.84;5005796;28;20131;-76
2023/11/08 09:02:45;;;;;;;23.67;11.38;;;;;;;14.33;64.01;94944.25;5005294;28;20110;-75
2023/11/08 09:05:10;;;;;;;26.45;12.10;;;;;;;14.40;64.25;94948.72;5038034;28;20480;-75
2023/11/08 09:07:36;;;;;;;24.50;11.85;;;;;;;14.38;64.32;94945.66;5004934;28;20190;-76
2023/11/08 09:10:03;;;;;;;24.25;11.00;;;;;;;14.42;63.98;94939.97;5041046;28;20109;-74
2023/11/08 09:12:28;;;;;;;23.42;11.85;;;;;;;14.42;64.04;94957.31;5040739;28;20476;-76
2023/11/08 09:14:53;;;;;;;21.63;11.02;;;;;;;14.42;64.28;94965.63;5010272;28;20331;-76
2023/11/08 09:17:20;;;;;;;18.80;11.18;;;;;;;14.48;64.31;94982.41;5009371;28;20026;-76
2023/11/08 09:19:45;;;;;;;22.38;12.50;;;;;;;14.47;64.72;94986.41;5009394;28;20088;-75
2023/11/08 09:22:12;;;;;;;23.77;13.13;;;;;;;14.44;64.79;94984.50;5041634;28;20050;-76
2023/11/08 09:24:38;;;;;;;21.17;12.88;;;;;;;14.48;64.81;94977.63;5024268;28;20030;-77
2023/11/08 09:27:06;;;;;;;25.00;13.45;;;;;;;14.46;65.53;94991.13;5042098;28;20026;-76
2023/11/08 09:29:32;;;;;;;17.63;12.27;;;;;;;14.46;65.73;94982.84;5007513;28;20022;-76
2023/11/08 09:31:58;;;;;;;26.17;12.52;;;;;;;14.49;65.81;94970.09;5009698;28;20037;-75
2023/11/08 09:34:23;;;;;;;25.50;13.55;;;;;;;14.47;66.04;94973.34;5040793;28;20022;-75
2023/11/08 09:36:49;;;;;;;23.52;12.25;;;;;;;14.46;66.53;94977.31;5009228;28;20038;-75
2023/11/08 09:39:16;;;;;;;25.98;12.30;;;;;;;14.41;66.61;94988.97;5009440;28;20026;-75
2023/11/08 09:41:42;;;;;;;16.17;10.10;;;;;;;14.44;66.35;94999.09;5040568;28;20030;-76
2023/11/08 09:44:08;;;;;;;22.45;9.85;;;;;;;14.40;66.17;95000.50;5041314;28;20514;-75
2023/11/08 09:46:34;;;;;;;23.02;8.55;;;;;;;14.43;65.99;95013.41;5040299;28;20030;-75
2023/11/08 09:48:59;;;;;;;21.08;9.55;;;;;;;14.48;66.07;95024.66;5041343;28;20112;-75
2023/11/08 09:51:25;;;;;;;18.33;8.38;;;;;;;14.53;66.30;95040.66;5040427;28;20365;-76
2023/11/08 09:53:51;;;;;;;13.90;7.53;;;;;;;14.53;66.17;95028.81;5040972;28;20400;-76
2023/11/08 09:56:18;;;;;;;16.63;7.28;;;;;;;14.58;65.88;95028.97;5008730;28;20030;-76
2023/11/08 09:58:47;;;;;;;15.98;6.05;;;;;;;14.52;66.59;95035.59;5009162;28;20030;-76
2023/11/08 10:01:17;;;;;;;14.13;5.88;;;;;;;14.52;66.89;95033.59;5041117;28;20025;-76
2023/11/08 10:03:43;;;;;;;13.23;4.90;;;;;;;14.54;66.98;95030.34;5039888;28;20029;-76
2023/11/08 10:06:09;;;;;;;10.52;3.83;;;;;;;14.63;67.06;95010.22;5041043;28;20037;-76
2023/11/08 10:08:35;;;;;;;9.13;3.40;;;;;;;14.70;67.15;95015.44;5039958;28;20113;-76
2023/11/08 10:11:01;;;;;;;9.35;3.13;;;;;;;14.67;67.20;94997.75;5009102;28;20428;-76
2023/11/08 10:13:49;;;;;;;10.88;4.68;;;;;;;14.63;67.67;95013.00;5008384;28;20050;-76
2023/11/08 10:16:20;;;;;;;8.18;4.63;;;;;;;14.59;67.48;94993.78;5040122;28;20029;-75
2023/11/08 10:19:00;;;;;;;12.63;5.13;;;;;;;14.47;67.90;95009.28;5008689;28;20116;-75
2023/11/08 10:21:30;;;;;;;8.40;4.32;;;;;;;14.47;68.10;95014.81;5039010;28;20117;-75
2023/11/08 10:24:08;;;;;;;10.48;3.80;;;;;;;14.50;68.31;95000.06;5039420;28;20049;-76
2023/11/08 10:26:36;;;;;;;5.70;2.40;;;;;;;14.49;68.07;95009.59;5039838;28;20349;-76
2023/11/08 10:29:07;;;;;;;5.53;2.03;;;;;;;14.42;68.12;94992.50;5006621;28;20101;-75
2023/11/08 10:31:39;;;;;;;9.50;2.83;;;;;;;14.43;68.47;95005.09;5040369;28;20025;-76
2023/11/08 10:34:06;;;;;;;7.65;2.67;;;;;;;14.40;68.39;94990.22;5039139;28;20480;-74
2023/11/08 10:36:33;;;;;;;4.85;1.95;;;;;;;14.44;68.25;94992.81;5040812;28;20096;-73
2023/11/08 10:38:59;;;;;;;7.53;3.20;;;;;;;14.34;68.63;94994.81;5022929;28;20057;-74
2023/11/08 10:41:25;;;;;;;6.93;2.95;;;;;;;14.32;68.50;94981.44;5007529;28;20042;-74
2023/11/08 10:44:24;;;;;;;3.53;1.80;;;;;;;14.29;68.66;94976.84;5039622;28;20036;-75
2023/11/08 10:46:57;;;;;;;5.35;1.70;;;;;;;14.22;68.72;94985.44;4988757;28;20579;-75
2023/11/08 10:49:23;;;;;;;4.05;1.55;;;;;;;14.18;69.12;95000.63;5006470;28;20558;-75
2023/11/08 10:51:51;;;;;;;3.55;1.98;;;;;;;14.11;69.16;94992.63;5004927;28;20030;-75
2023/11/08 10:54:16;;;;;;;2.95;1.65;;;;;;;14.05;68.87;94984.97;5005752;28;20040;-76
2023/11/08 10:56:45;;;;;;;3.65;2.15;;;;;;;14.13;69.21;95001.25;5005306;28;20038;-75
2023/11/08 10:59:12;;;;;;;2.40;1.27;;;;;;;14.12;68.74;95006.00;5005192;28;20100;-75
2023/11/08 11:01:38;;;;;;;2.95;1.20;;;;;;;14.03;69.19;94990.16;5005541;28;20430;-76
2023/11/08 11:04:09;;;;;;;2.33;1.17;;;;;;;14.06;69.12;94994.03;5004868;28;20073;-76
2023/11/08 11:06:36;;;;;;;2.75;1.10;;;;;;;13.99;69.90;95005.34;5005923;28;20022;-75
2023/11/08 11:09:04;;;;;;;3.42;2.00;;;;;;;13.96;69.88;95001.50;5004260;28;20397;-76
2023/11/08 11:11:33;;;;;;;3.60;1.30;;;;;;;13.89;70.02;95015.63;5005551;28;20087;-76
2023/11/08 11:14:05;;;;;;;1.70;1.10;;;;;;;13.81;69.89;95020.66;5004811;28;20085;-75
2023/11/08 11:16:35;;;;;;;3.15;1.15;;;;;;;13.77;70.35;95016.53;5005257;28;20627;-75
2023/11/08 11:19:11;;;;;;;3.88;1.20;;;;;;;13.81;70.64;95028.94;5004807;28;20053;-76
2023/11/08 11:21:50;;;;;;;5.47;2.08;;;;;;;13.77;70.99;95039.38;5004857;28;20045;-75